Terminal Aerodrome Forecast
Issued by NWS

Home | Current Version | Previous Version | Text Only | Print | Product List | Glossary On
Versions: 1 2 3 4 5 6 7 8 9 10 11 12 13 14 15 16 17 18
361
FTUS42 KGSP 292340
TAFAND
TAF
KAND 292340Z 3000/3024 21007KT P6SM SKC
     FM300800 10006KT P6SM BKN070
     FM301100 10007KT 4SM BR BKN010
     FM301300 10007KT P6SM OVC008 PROB30 3014/3020 2SM -RA BR OVC003
     FM302000 11008KT 4SM -SHRA OVC015=

USA.gov is the U.S. government's official web portal to all federal, state and local government web resources and services.